Back to year calendar

Salford Junior Tri Club Triathlon

19th September 2004

Results courtesy of Barbara Blackburn for Salford Junior Tri Club
Novice 1
PosNumNameClubWave StartSwim FinishSwim SplitBike FinishBike SplitRun FinishRun SplitTotal
111JOE FENNELLYMERSEY TRINovice1B01:01:0001:02:0500:01:0501:06:2000:04:1501:09:1700:02:5700:08:17
21LIAM RUSSELLWIGANNovice1B01:01:0001:02:1200:01:1201:06:2200:04:1001:09:3000:03:0800:08:30
32NATHAN BRADWELLU/ANovice1B01:01:0001:02:2000:01:2001:06:4100:04:2101:09:3200:02:5100:08:32
410LEWIS SANDERSSCARABNovice1B01:01:0001:02:4100:01:4101:06:4300:04:0201:09:4200:02:5900:08:42
54JACK BURGESSSJTCNovice1B01:01:0001:02:2600:01:2601:07:0400:04:3801:09:5900:02:5500:08:59
67HARRY YUNGU/ANovice1B01:01:0001:02:3700:01:3701:07:1700:04:4001:10:0600:02:4900:09:06
76ANDREW OAKESTAMESIDENovice1B01:01:0001:02:4700:01:4701:07:0500:04:1801:10:0800:03:0300:09:08
85DOMINIC ALLMARKWIGANNovice1B01:01:0001:02:3000:01:3001:07:1300:04:4301:10:0900:02:5600:09:09
913MELISSA BURYBOLTON TRINovice1G01:01:0001:02:1601:01:0001:07:1100:04:5501:10:4900:03:3800:09:49
103JAIMIE MASONSJTCNovice1B01:01:0001:02:3900:01:3901:07:5500:05:1601:11:3100:03:3600:10:31
1117REGAN L-TIMMSSJTCNovice1G01:01:0001:02:3300:01:3301:07:5800:05:2501:11:4600:03:4800:10:46
1214HOLLY BURGESSSJTCNovice1G01:01:0001:02:1900:01:1901:07:4000:05:2101:14:0200:06:2200:13:02
Tristart
 NumNameClubWave  Swim FinishSwim SplitBike FinishBike SplitRun FinishRun SplitTotal
18LIAM TUSTINU/ATristartB00:50:0000:51:2500:01:2500:55:2000:03:5500:58:0900:02:4900:08:09
215ISOBEL DEWAR-FOWLERYORKSHIRE SERIESTristartG00:50:0000:51:1300:01:1300:55:2300:04:1000:58:1600:02:5300:08:16
312MAC MELLORYORKSHIRE SERIESTristartB00:50:0000:51:1300:01:1300:55:2700:04:1400:58:5100:03:2400:08:51
418MATTHEW BLOUNTYORKSHIRE SERIESTristartB00:50:0000:51:4300:01:4300:56:2800:04:4500:59:1900:02:5100:09:19
516ELLEN HARRISCHESTERTristartG00:50:0000:51:3300:01:3300:56:3100:04:5801:00:0800:03:3700:10:08
69JAMES WOODWIGAN TRITristartB00:50:0000:51:2800:01:2800:56:3400:05:0601:00:2800:03:5400:10:28
Novice 2
 NumNameClubWave  Swim FinishSwim SplitBike FinishBike SplitRun FinishRun SplitTotal
122DANIEL BRODERICKU/ANovice2B01:17:0001:19:1900:02:1901:26:1900:07:0001:31:2700:05:0800:14:27
224AMY AFFLECKU/A - YORKS SERIESNovice2G01:17:0001:19:2800:02:2801:26:4700:07:1901:32:0700:05:2000:15:07
321MATTHEW JACKSONU/ANovice2B01:17:0001:19:3700:02:3701:26:5000:07:1301:32:1300:05:2300:15:13
426LEEANNE SHEEHYSJTCNovice2G01:17:0001:19:5600:02:5601:26:4900:06:5301:33:0600:06:1700:16:06
527REBECCA LANGDELLU/ANovice2G01:17:0001:19:4800:02:4801:27:3900:07:5101:33:3200:05:5300:16:32
619LAURENCE ALLMARKWIGANNovice2B01:17:0001:20:0600:03:0601:27:3800:07:3201:34:0800:06:3000:17:08
728KATIE MASONSJTCNovice2G01:17:0001:20:1000:03:1001:28:4000:08:3001:35:4300:07:0300:18:43
8136LAURA WALKERCHESTERNovice2G01:17:0001:20:1300:03:1301:28:4600:08:3301:35:5000:07:0400:18:50
925MEGAN MURFINSJTCNovice2G01:17:0001:21:0900:04:0901:29:1500:08:0601:36:3800:07:2300:19:38
1020SAM IVORYU/ANovice2B01:17:0001:21:4200:04:4201:30:3300:08:5101:37:4800:07:1500:20:48
1123EMMA LOMASSJTCNovice2G01:17:0001:20:3400:03:3401:29:2100:08:4701:38:0500:08:4400:21:05
T1
 NumNameClubWave  Swim FinishSwim SplitBike FinishBike SplitRun FinishRun SplitTotal
129GEORGE WATTSMERSEY TRIT1B01:32:0001:35:0300:03:0301:42:3300:07:3001:47:5700:05:2400:15:57
230JAMES BREMNERCHESTERT1B01:32:0001:36:0400:04:0401:42:4000:06:3601:48:0500:05:2500:16:05
332DAVID JUBBU/AT1B01:32:0001:35:4700:03:4701:42:5200:07:0501:48:2200:05:3000:16:22
433ANGUS DEWAR-FOWLERYORKSHIRE SERIEST1B01:32:0001:35:3900:03:3901:43:1200:07:3301:48:3100:05:1900:16:31
534NICK BOWKERMAN TRIT1B01:32:0001:35:3000:03:3001:43:0900:07:3901:49:1200:06:0300:17:12
635PETER TEMPLEMANBOLTONT1B01:32:0001:35:4300:03:4301:42:5900:07:1601:49:1500:06:1600:17:15
736DARRYL JONESSJTCT1B01:32:0001:36:3000:04:3001:44:3200:08:0201:50:5200:06:2000:18:52
837SAM STRADLINGCHESTERT1B01:32:0001:36:4100:04:4101:45:0300:08:2201:51:1000:06:0700:19:10
938ADAM LOMASSJTCT1B01:32:0001:36:4700:04:4701:44:4500:07:5801:52:0500:07:2000:20:05
 NumNameClubWave  Swim FinishSwim SplitBike FinishBike SplitRun FinishRun SplitTotal
148CATHERINE JONESBOLTONT1G01:49:0001:52:2500:03:2502:00:4100:08:1602:06:2800:05:4700:17:28
243JEMMA NEVINU/AT1G01:49:0001:53:2800:04:2802:01:2600:07:5802:06:3000:05:0400:17:30
347LUCY MATTHEWSSJTCT1G01:49:0001:53:1000:04:1002:01:1800:08:0802:07:0100:05:4300:18:01
442ELLA CARTERBOLTONT1G01:49:0001:52:5400:03:5402:00:4200:07:4802:07:0300:06:2100:18:03
550GRACE WOODWIGAN TRIT1G01:49:0001:52:2800:03:2802:03:0900:10:4102:07:0600:03:5700:18:06
640SOPHIE BACKHOUSESJTCT1G01:49:0001:52:3200:03:3202:00:5900:08:2702:07:4100:06:4200:18:41
749SUZANNE TAYLORSJTCT1G01:49:0001:53:2800:04:2802:01:3800:08:1002:07:4600:06:0800:18:46
853ZOE BRUNTONMERSEY TRIT1G01:49:0001:53:0600:04:0602:00:5200:07:4602:08:0300:07:1100:19:03
946SAVANNA SAUNDERSSJTCT1G01:49:0001:53:2800:04:2802:01:1400:07:4602:08:3000:07:1600:19:30
1051RACHEL BLOUNTCHESTERT1G01:49:0001:53:5200:04:5202:00:4300:06:5102:08:5900:08:1600:19:59
1141ABBY BRIDGFORDSJTCT1G01:49:0001:53:3500:04:3502:02:5500:09:2002:09:1800:06:2300:20:18
1244ROSIE EVANSMERSEY TRIT1G01:49:0001:53:4300:04:4302:03:0800:09:2502:10:2900:07:2100:21:29
1345EMMA BROOKU/AT1G01:49:0001:53:2800:04:2802:02:5300:09:2502:10:3900:07:4600:21:39
1452HANNAH COOPERBOLTONT1G01:49:0001:53:2800:04:2802:03:1400:09:4602:11:1500:08:0100:22:15
dnf39CHARLOTTE BROOKU/AT1G01:49:0001:56:2300:07:2302:03:1900:06:56DNF  
T2
 NumNameClubWave  Swim FinishSwim SplitBike FinishBike SplitRun FinishRun SplitTotal
154JORDAN BRIDGFORDSJTCT2B02:05:0002:08:3100:03:3102:20:2000:11:4902:28:1500:07:5500:23:15
255BENJAMIN SAMUELU/AT2B02:05:0002:09:0900:04:0902:21:3700:12:2802:30:0300:08:2600:25:03
356ALEX HODKINSONBOLTONT2B02:05:0002:09:4600:04:4602:22:4600:13:0002:31:1200:08:2600:26:12
457JAMIE MARTINYORKSHIRE SERIEST2B02:05:0002:08:1000:03:1002:22:5400:14:4402:31:2200:08:2800:26:22
558DALE JONESSJTCT2B02:05:0002:09:1400:04:1402:22:2600:13:1202:31:2600:09:0000:26:26
659JAMIE BOWRONYORKSHIRE SERIEST2B02:05:0002:09:1900:04:1902:24:2200:15:0302:33:3100:09:0900:28:31
760IAN COOPERBOLTONT2B02:05:0002:09:2900:04:2902:28:5600:19:2702:38:2200:09:2600:33:22
 NumNameClubWave  Swim FinishSwim SplitBike FinishBike SplitRun FinishRun SplitTotal
166JESSICA MACDONALDSJTCT2G02:32:0002:35:5500:03:5502:40:2900:04:3402:58:0400:17:3500:26:04
268BETH SAUNDERSSJTCT2G02:32:0002:35:5300:03:5302:49:3400:13:4102:58:1100:08:3700:26:11
369RACHEL HEYWOODSJTCT2G02:32:0002:36:4100:04:4102:50:5100:14:1003:00:0200:09:1100:28:02
470AMY MATTHEWSSJTCT2G02:32:0002:35:4600:03:4602:50:5600:15:1003:00:0900:09:1300:28:09
572GEMMA BLACKBURNSJTCT2G02:32:0002:36:2900:04:2902:51:0400:14:3503:00:2700:09:2300:28:27
673JESSIE EVANSMERSEY TRIT2G02:32:0002:36:3200:04:3202:51:3800:15:0603:00:5600:09:1800:28:56
774KIRSTEN MCASLANU/AT2G02:32:0002:36:5300:04:5302:53:0800:16:1503:01:2900:08:2100:29:29
875ATHENA MELLORYORKSHIRE SERIEST2G02:32:0002:36:4200:04:4202:52:1500:15:3303:01:3100:09:1600:29:31
976JANE RUDDU/AT2G02:32:0002:35:5100:03:5102:52:0500:16:1403:02:1100:10:0600:30:11
1077RACHEL HANDLEYSJTCT2G02:32:0002:37:5900:05:5902:53:0600:15:0703:03:4800:10:4200:31:48
1178JOANNA ROBERTS T2G02:32:0002:36:3700:04:3702:53:4000:17:0303:05:2400:11:4400:33:24
1279CHARLOTTE CRAMPTONSJTCT2G02:32:0002:37:0800:05:0802:54:3100:17:2303:06:3200:12:0100:34:32
1381AMY WALKERSJTCT2 02:32:0002:36:1700:04:1702:54:3000:18:1303:06:4500:12:1500:34:45
T3
 NumNameClubWave  Swim FinishSwim SplitBike FinishBike SplitRun FinishRun SplitTotal
184MATTHEW KIMPTONCHESTERT3B02:56:0003:00:3800:04:3803:16:5200:16:1403:26:2700:09:3500:30:27
285SAUL ELLYMAN TRIT3B02:56:0003:00:3500:04:3503:16:4800:16:1303:26:5900:10:1100:30:59
386SAM RUSSELLWIGANT3B02:56:0003:00:1700:04:1703:17:2000:17:0303:27:0400:09:4400:31:04
488PHIL HOGGCHESTERT3B02:56:0003:01:1600:05:1603:17:3800:16:2203:27:5200:10:1400:31:52
589DANIEL ATHERTONWIGANT3B02:56:0003:00:1400:04:1403:17:4300:17:2903:28:1800:10:3500:32:18
690CALLUM TUSTINU/AT3B02:56:0003:01:0400:05:0403:19:4300:18:3903:29:5200:10:0900:33:52
791ADAM BRIDGFORDSJTCT3B02:56:0003:00:5600:04:5603:18:2800:17:3203:30:0800:11:4000:34:08
892JORDI PASQUALINU/AT3B02:56:0003:01:3800:05:3803:18:4100:17:0303:31:4500:13:0400:35:45
993GREG SAMUELU/AT3B02:56:0003:00:3200:04:3203:20:2000:19:4803:34:3700:14:1700:38:37
1095CLARK CRONINCHESTERT3B02:56:0003:02:4300:06:4303:23:1500:20:3203:36:2100:13:0600:40:21
 NumNameClubWave  Swim FinishSwim SplitBike FinishBike SplitRun FinishRun SplitTotal
197NINA MCARTHURMAN TRIT3G03:24:0003:28:2800:04:2803:46:3400:18:0603:56:4300:10:0900:32:43
299CHARLOTTE LINFOOTWIGANT3G03:24:0003:28:0200:04:0203:46:3300:18:3103:57:3300:11:0000:33:33
396LOIS ROSINDALEU/A - YORKS SERIEST3G03:24:0003:29:0100:05:0103:47:1100:18:1003:57:3400:10:2300:33:34
4101AMY WOODWIGAN TRIT3G03:24:0003:28:3300:04:3303:47:3300:19:0003:58:2700:10:5400:34:27
598JESSICA WHEATLEYU/AT3G03:24:0003:28:4100:04:4103:48:1700:19:3603:58:3800:10:2100:34:38
6100ARABELLA FOXSJTCT3G03:24:0003:28:5500:04:5503:47:0500:18:1004:01:4000:14:3500:37:40
Youth
 NumNameClubWave  Swim FinishSwim SplitBike FinishBike SplitRun FinishRun SplitTotal
1102DANIEL KEENU/AYOUTHB03:49:0003:55:5200:06:5204:16:4700:20:5504:28:4800:12:0100:39:48
2108LAUREN BATEWIGANYOUTHG03:49:0003:54:1700:05:1704:19:4300:25:2604:35:1700:15:3400:46:17
3109CHLOE HOLLANDMANTRIYOUTHG03:49:0003:55:5800:06:5804:21:3400:25:3604:36:3000:14:5600:47:30
dnf104MATT FISHERCHESTERYOUTHB03:49:0003:54:3300:05:3304:15:4700:21:14DNF  
Back to year index - Top of page